createdAt,value
2023-01-20T00:02:33.466Z,1.0
2023-01-20T00:07:19.858Z,1.0
2023-01-20T00:12:26.255Z,1.0
2023-01-20T00:19:52.880Z,1.0
2023-01-20T00:27:45.379Z,1.0
2023-01-20T00:33:11.764Z,1.0
2023-01-20T00:38:18.130Z,1.0
2023-01-20T00:43:04.501Z,0.9
2023-01-20T00:48:10.945Z,0.9
2023-01-20T00:53:17.325Z,0.9
2023-01-20T00:58:23.741Z,0.9
2023-01-20T01:03:30.140Z,0.8
2023-01-20T01:08:36.477Z,0.8
2023-01-20T01:13:42.947Z,0.8
2023-01-20T01:18:49.298Z,0.8
2023-01-20T01:23:55.752Z,0.8
2023-01-20T01:29:02.186Z,0.8
2023-01-20T01:34:08.513Z,0.8
2023-01-20T01:39:38.944Z,0.8
2023-01-20T01:44:21.309Z,0.8
2023-01-20T01:49:27.770Z,0.8
2023-01-20T01:54:34.147Z,0.8
2023-01-20T01:59:40.557Z,0.8
2023-01-20T02:04:46.927Z,0.8
2023-01-20T02:09:53.299Z,0.8
2023-01-20T02:14:49.682Z,0.8
2023-01-20T02:20:26.086Z,0.9
2023-01-20T02:25:02.410Z,0.9
2023-01-20T02:30:38.982Z,0.9
2023-01-20T02:35:25.337Z,0.9
2023-01-20T02:40:31.718Z,0.9
2023-01-20T02:46:02.203Z,0.9
2023-01-20T02:55:50.881Z,0.9
2023-01-20T03:00:57.315Z,0.9
2023-01-20T03:06:03.912Z,0.9
2023-01-20T03:11:10.245Z,0.9
2023-01-20T03:16:16.751Z,0.9
2023-01-20T03:21:37.167Z,0.9
2023-01-20T03:26:29.494Z,1.0
2023-01-20T03:31:55.919Z,1.0
2023-01-20T03:36:42.290Z,1.0
2023-01-20T03:41:38.632Z,1.0
2023-01-20T03:46:55.033Z,1.0
2023-01-20T03:52:01.449Z,1.0
2023-01-20T04:02:14.868Z,1.0
2023-01-20T04:07:46.206Z,1.0
2023-01-20T04:12:48.624Z,1.0
2023-01-20T04:22:41.366Z,0.9
2023-01-20T04:27:37.762Z,1.0
2023-01-20T04:32:44.237Z,0.9
2023-01-20T04:38:00.673Z,0.9
2023-01-20T04:43:07.072Z,0.9
2023-01-20T04:48:13.420Z,1.0
2023-01-20T04:53:20.392Z,0.9
2023-01-20T05:03:33.142Z,0.9
2023-01-20T05:13:46.067Z,0.9
2023-01-20T05:18:52.481Z,0.9
2023-01-20T05:23:58.876Z,0.9
2023-01-20T05:29:29.353Z,1.0
2023-01-20T05:34:11.665Z,0.9
2023-01-20T05:39:18.079Z,0.9
2023-01-20T05:44:24.469Z,0.9
2023-01-20T05:50:15.049Z,0.9
2023-01-20T05:55:01.367Z,0.9
2023-01-20T06:04:50.095Z,0.9
2023-01-20T06:15:02.901Z,0.9
2023-01-20T06:20:09.238Z,0.9
2023-01-20T06:25:16.007Z,0.9
2023-01-20T06:30:22.043Z,0.9
2023-01-20T06:35:28.473Z,0.9
2023-01-20T06:40:34.821Z,0.9
2023-01-20T06:45:41.610Z,0.9
2023-01-20T06:50:47.976Z,0.9
2023-01-20T06:55:54.448Z,0.9
2023-01-20T07:01:25.066Z,0.9
2023-01-20T07:06:07.242Z,0.9
2023-01-20T07:11:13.642Z,0.9
2023-01-20T07:16:20.076Z,0.9
2023-01-20T07:21:26.808Z,0.9
2023-01-20T07:26:32.806Z,0.9
2023-01-20T07:31:39.193Z,0.9
2023-01-20T07:36:35.654Z,0.9
2023-01-20T07:41:52.067Z,0.9
2023-01-20T07:46:58.418Z,0.9
2023-01-20T07:52:04.824Z,0.9
2023-01-20T07:57:35.441Z,0.9
2023-01-20T08:02:17.786Z,0.9
2023-01-20T08:07:24.179Z,0.9
2023-01-20T08:12:30.562Z,0.9
2023-01-20T08:17:36.987Z,0.9
2023-01-20T08:22:43.335Z,0.9
2023-01-20T08:27:49.701Z,0.9
2023-01-20T08:32:56.103Z,0.9
2023-01-20T08:38:02.452Z,0.9
2023-01-20T08:43:08.823Z,0.9
2023-01-20T08:48:15.263Z,0.9
2023-01-20T09:03:34.445Z,0.9
2023-01-20T09:08:40.801Z,0.9
2023-01-20T09:13:47.208Z,0.9
2023-01-20T09:18:53.779Z,1.0
2023-01-20T09:24:00.052Z,0.9
2023-01-20T09:29:06.501Z,1.0
2023-01-20T09:34:15.110Z,1.0
2023-01-20T09:44:25.638Z,1.0
2023-01-20T09:49:32.056Z,1.0
2023-01-20T09:54:38.427Z,1.1
2023-01-20T09:59:44.804Z,1.1
2023-01-20T10:04:51.241Z,1.1
2023-01-20T10:09:57.645Z,1.1
2023-01-20T10:15:04.118Z,1.2
2023-01-20T10:20:34.948Z,1.2
2023-01-20T10:25:16.326Z,1.2
2023-01-20T10:30:23.813Z,1.3
2023-01-20T10:35:30.172Z,1.3
2023-01-20T10:40:36.640Z,1.3
2023-01-20T10:45:42.930Z,1.4
2023-01-20T10:50:49.310Z,1.4
2023-01-20T10:55:57.897Z,1.4
2023-01-20T11:01:02.057Z,1.5
2023-01-20T11:06:28.514Z,1.5
2023-01-20T11:11:14.961Z,1.5
2023-01-20T11:16:21.330Z,1.5
2023-01-20T11:21:17.600Z,1.6
2023-01-20T11:36:46.761Z,1.7
2023-01-20T11:46:59.519Z,1.7
2023-01-20T11:52:05.937Z,1.8
2023-01-20T11:57:12.340Z,1.8
2023-01-20T12:02:08.745Z,1.8
2023-01-20T12:12:33.807Z,1.9
2023-01-20T12:23:56.918Z,1.9
2023-01-20T12:27:51.192Z,1.9
2023-01-20T12:32:57.531Z,2.0
2023-01-20T12:38:03.914Z,2.0
2023-01-20T12:43:34.497Z,2.0
2023-01-20T12:48:16.878Z,2.0
2023-01-20T12:53:43.280Z,2.0
2023-01-20T12:58:49.697Z,2.0
2023-01-20T13:03:36.007Z,2.0
2023-01-20T13:08:42.365Z,2.1
2023-01-20T13:13:57.370Z,2.1
2023-01-20T13:18:55.146Z,2.1
2023-01-20T13:24:01.728Z,2.1
2023-01-20T13:29:08.079Z,2.1
2023-01-20T13:34:14.479Z,2.1
2023-01-20T13:54:39.964Z,2.1
2023-01-20T13:59:46.348Z,2.2
2023-01-20T14:04:52.762Z,2.2
2023-01-20T14:09:59.118Z,2.2
2023-01-20T14:17:53.848Z,2.2
2023-01-20T14:25:18.321Z,2.2
2023-01-20T14:30:24.908Z,2.3
2023-01-20T14:35:31.393Z,2.3
2023-01-20T14:40:37.680Z,2.3
2023-01-20T14:45:44.083Z,2.3
2023-01-20T14:50:50.482Z,2.3
2023-01-20T14:57:11.099Z,2.4
2023-01-20T15:01:03.347Z,2.4
2023-01-20T15:05:59.752Z,2.4
2023-01-20T15:11:16.119Z,2.4
2023-01-20T15:16:22.549Z,2.5
2023-01-20T15:21:29.009Z,2.5
2023-01-20T15:26:35.435Z,2.5
2023-01-20T15:31:41.939Z,2.5
2023-01-20T15:36:48.308Z,2.5
2023-01-20T15:41:54.675Z,2.4
2023-01-20T15:47:03.263Z,2.4
2023-01-20T15:53:41.879Z,2.4
2023-01-20T15:57:15.136Z,2.4
2023-01-20T16:02:23.219Z,2.3
2023-01-20T16:12:36.145Z,2.3
2023-01-20T16:17:42.507Z,2.2
2023-01-20T16:23:12.925Z,2.2
2023-01-20T16:27:55.815Z,2.2
2023-01-20T16:33:02.342Z,2.1
2023-01-20T16:43:15.124Z,2.1
2023-01-20T16:49:45.717Z,2.0
2023-01-20T16:53:27.951Z,2.0
2023-01-20T16:58:34.519Z,2.0
2023-01-20T17:04:03.078Z,1.9
2023-01-20T17:09:13.498Z,1.9
2023-01-20T17:13:55.919Z,1.9
2023-01-20T17:19:02.420Z,1.8
2023-01-20T17:24:08.815Z,1.8
2023-01-20T17:29:15.311Z,1.8
2023-01-20T17:34:21.660Z,1.7
2023-01-20T17:39:28.152Z,1.7
2023-01-20T17:44:34.564Z,1.7
2023-01-20T17:50:41.022Z,1.7
2023-01-20T17:55:48.431Z,1.7
2023-01-20T18:00:34.824Z,1.7
2023-01-20T18:05:41.217Z,1.7
2023-01-20T18:10:47.604Z,1.7
2023-01-20T18:15:54.023Z,1.7
2023-01-20T18:21:00.388Z,1.6
2023-01-20T18:26:06.782Z,1.6
2023-01-20T18:31:13.499Z,1.6
2023-01-20T18:36:18.634Z,1.6
2023-01-20T18:41:26.067Z,1.6
2023-01-20T18:46:32.509Z,1.6
2023-01-20T18:51:37.885Z,1.5
2023-01-20T18:56:45.240Z,1.5
2023-01-20T19:06:47.999Z,1.4
2023-01-20T19:11:54.390Z,1.3
2023-01-20T19:17:10.893Z,1.2
2023-01-20T19:22:17.222Z,1.2
2023-01-20T19:27:43.657Z,1.1
2023-01-20T19:32:30.024Z,1.0
2023-01-20T19:37:26.373Z,1.0
2023-01-20T19:42:42.863Z,0.9
2023-01-20T19:47:49.382Z,0.9
2023-01-20T19:52:45.691Z,0.8
2023-01-20T19:58:22.122Z,0.8
2023-01-20T20:02:58.533Z,0.8
2023-01-20T20:08:14.875Z,0.7
2023-01-20T20:13:22.795Z,0.7
2023-01-20T20:18:51.816Z,0.6
2023-01-20T20:23:34.139Z,0.6
2023-01-20T20:28:40.657Z,0.5
2023-01-20T20:33:47.075Z,0.4
2023-01-20T20:38:43.445Z,0.4
2023-01-20T20:43:59.828Z,0.3
2023-01-20T20:49:06.261Z,0.2
2023-01-20T20:54:12.657Z,0.2
2023-01-20T20:59:19.067Z,0.1
2023-01-20T21:04:25.442Z,0.1
2023-01-20T21:09:32.066Z,0.0
2023-01-20T21:14:38.183Z,-0.1
2023-01-20T21:19:44.571Z,-0.1
2023-01-20T21:24:50.979Z,-0.2
2023-01-20T21:30:33.452Z,-0.3
2023-01-20T21:35:40.811Z,-0.3
2023-01-20T21:41:11.239Z,-0.4
2023-01-20T21:45:53.570Z,-0.4
2023-01-20T21:50:59.993Z,-0.5
2023-01-20T22:01:16.399Z,-0.6
2023-01-20T22:16:35.651Z,-0.8
2023-01-20T22:21:41.932Z,-0.8
2023-01-20T22:26:48.465Z,-0.9
2023-01-20T22:31:55.578Z,-0.9
2023-01-20T22:37:25.881Z,-1.0
2023-01-20T22:42:08.193Z,-1.0
2023-01-20T22:47:14.732Z,-1.1
2023-01-20T22:52:21.265Z,-1.1
2023-01-20T22:57:27.758Z,-1.2
2023-01-20T23:02:38.154Z,-1.2
2023-01-20T23:07:44.521Z,-1.2
2023-01-20T23:12:50.889Z,-1.3
2023-01-20T23:17:57.298Z,-1.3
2023-01-20T23:23:03.685Z,-1.4
2023-01-20T23:28:10.056Z,-1.4
2023-01-20T23:33:16.558Z,-1.4
2023-01-20T23:38:43.570Z,-1.5
2023-01-20T23:43:29.888Z,-1.5
2023-01-20T23:48:59.943Z,-1.6
2023-01-20T23:53:46.278Z,-1.6
2023-01-20T23:59:12.734Z,-1.7
